sensor_id;sensor_type;location;lat;lon;timestamp;P1;durP1;ratioP1;P2;durP2;ratioP2
11588;SDS011;5850;51.360;12.362;2024-01-15T00:01:01;14.47;;;9.70;;
11588;SDS011;5850;51.360;12.362;2024-01-15T00:03:30;15.70;;;10.07;;
11588;SDS011;5850;51.360;12.362;2024-01-15T00:05:58;14.03;;;9.47;;
11588;SDS011;5850;51.360;12.362;2024-01-15T00:08:26;16.10;;;10.00;;
11588;SDS011;5850;51.360;12.362;2024-01-15T00:10:55;12.43;;;9.07;;
11588;SDS011;5850;51.360;12.362;2024-01-15T00:13:23;14.80;;;9.47;;
11588;SDS011;5850;51.360;12.362;2024-01-15T00:15:51;14.73;;;9.50;;
11588;SDS011;5850;51.360;12.362;2024-01-15T00:18:19;17.23;;;10.53;;
11588;SDS011;5850;51.360;12.362;2024-01-15T00:20:47;14.87;;;9.90;;
11588;SDS011;5850;51.360;12.362;2024-01-15T00:23:15;15.80;;;10.63;;
11588;SDS011;5850;51.360;12.362;2024-01-15T00:25:43;15.57;;;10.37;;
11588;SDS011;5850;51.360;12.362;2024-01-15T00:28:11;14.67;;;10.07;;
11588;SDS011;5850;51.360;12.362;2024-01-15T00:30:40;15.13;;;9.90;;
11588;SDS011;5850;51.360;12.362;2024-01-15T00:33:09;15.00;;;10.33;;
11588;SDS011;5850;51.360;12.362;2024-01-15T00:35:38;16.00;;;9.60;;
11588;SDS011;5850;51.360;12.362;2024-01-15T00:38:07;14.67;;;9.90;;
11588;SDS011;5850;51.360;12.362;2024-01-15T00:40:35;13.93;;;10.33;;
11588;SDS011;5850;51.360;12.362;2024-01-15T00:43:03;15.70;;;10.50;;
11588;SDS011;5850;51.360;12.362;2024-01-15T00:45:33;14.93;;;10.70;;
11588;SDS011;5850;51.360;12.362;2024-01-15T00:48:01;17.00;;;11.27;;
11588;SDS011;5850;51.360;12.362;2024-01-15T00:50:30;15.03;;;10.40;;
11588;SDS011;5850;51.360;12.362;2024-01-15T00:52:58;14.97;;;10.03;;
11588;SDS011;5850;51.360;12.362;2024-01-15T00:55:28;14.23;;;9.33;;
11588;SDS011;5850;51.360;12.362;2024-01-15T00:57:56;16.77;;;9.97;;
11588;SDS011;5850;51.360;12.362;2024-01-15T01:00:24;14.83;;;9.67;;
11588;SDS011;5850;51.360;12.362;2024-01-15T01:02:53;17.20;;;10.47;;
11588;SDS011;5850;51.360;12.362;2024-01-15T01:05:21;13.40;;;9.83;;
11588;SDS011;5850;51.360;12.362;2024-01-15T01:07:49;14.83;;;9.70;;
11588;SDS011;5850;51.360;12.362;2024-01-15T01:10:17;16.70;;;9.77;;
11588;SDS011;5850;51.360;12.362;2024-01-15T01:12:45;16.23;;;10.77;;
11588;SDS011;5850;51.360;12.362;2024-01-15T01:15:14;14.20;;;10.13;;
11588;SDS011;5850;51.360;12.362;2024-01-15T01:17:42;14.33;;;9.50;;
11588;SDS011;5850;51.360;12.362;2024-01-15T01:20:10;12.73;;;9.30;;
11588;SDS011;5850;51.360;12.362;2024-01-15T01:22:42;13.50;;;9.37;;
11588;SDS011;5850;51.360;12.362;2024-01-15T01:25:11;14.03;;;9.47;;
11588;SDS011;5850;51.360;12.362;2024-01-15T01:27:40;12.73;;;9.67;;
11588;SDS011;5850;51.360;12.362;2024-01-15T01:30:08;14.27;;;9.83;;
11588;SDS011;5850;51.360;12.362;2024-01-15T01:32:36;13.40;;;9.50;;
11588;SDS011;5850;51.360;12.362;2024-01-15T01:35:05;14.03;;;9.83;;
11588;SDS011;5850;51.360;12.362;2024-01-15T01:37:33;16.03;;;9.17;;
11588;SDS011;5850;51.360;12.362;2024-01-15T01:40:01;15.77;;;9.97;;
11588;SDS011;5850;51.360;12.362;2024-01-15T01:42:29;14.17;;;10.33;;
11588;SDS011;5850;51.360;12.362;2024-01-15T01:44:57;12.50;;;8.70;;
11588;SDS011;5850;51.360;12.362;2024-01-15T01:47:25;13.70;;;8.80;;
11588;SDS011;5850;51.360;12.362;2024-01-15T01:49:54;15.73;;;9.67;;
11588;SDS011;5850;51.360;12.362;2024-01-15T01:52:22;13.00;;;9.27;;
11588;SDS011;5850;51.360;12.362;2024-01-15T01:54:50;14.57;;;9.27;;
11588;SDS011;5850;51.360;12.362;2024-01-15T01:57:19;13.20;;;9.20;;
11588;SDS011;5850;51.360;12.362;2024-01-15T01:59:48;13.97;;;8.93;;
11588;SDS011;5850;51.360;12.362;2024-01-15T02:02:16;13.43;;;9.10;;
11588;SDS011;5850;51.360;12.362;2024-01-15T02:04:44;13.37;;;8.73;;
11588;SDS011;5850;51.360;12.362;2024-01-15T02:07:12;15.20;;;9.57;;
11588;SDS011;5850;51.360;12.362;2024-01-15T02:09:49;13.83;;;9.03;;
11588;SDS011;5850;51.360;12.362;2024-01-15T02:12:17;15.80;;;10.03;;
11588;SDS011;5850;51.360;12.362;2024-01-15T02:14:45;12.67;;;8.80;;
11588;SDS011;5850;51.360;12.362;2024-01-15T02:17:13;15.33;;;8.70;;
11588;SDS011;5850;51.360;12.362;2024-01-15T02:19:41;16.83;;;9.07;;
11588;SDS011;5850;51.360;12.362;2024-01-15T02:22:10;13.53;;;9.07;;
11588;SDS011;5850;51.360;12.362;2024-01-15T02:24:38;14.67;;;9.10;;
11588;SDS011;5850;51.360;12.362;2024-01-15T02:27:06;14.33;;;9.53;;
11588;SDS011;5850;51.360;12.362;2024-01-15T02:29:34;14.63;;;10.00;;
11588;SDS011;5850;51.360;12.362;2024-01-15T02:32:06;12.50;;;8.77;;
11588;SDS011;5850;51.360;12.362;2024-01-15T02:34:35;12.77;;;8.50;;
11588;SDS011;5850;51.360;12.362;2024-01-15T02:37:03;15.63;;;9.27;;
11588;SDS011;5850;51.360;12.362;2024-01-15T02:39:31;14.53;;;9.53;;
11588;SDS011;5850;51.360;12.362;2024-01-15T02:42:00;11.33;;;8.37;;
11588;SDS011;5850;51.360;12.362;2024-01-15T02:44:28;12.57;;;9.17;;
11588;SDS011;5850;51.360;12.362;2024-01-15T02:46:56;15.43;;;9.43;;
11588;SDS011;5850;51.360;12.362;2024-01-15T02:49:24;13.43;;;8.53;;
11588;SDS011;5850;51.360;12.362;2024-01-15T02:51:52;13.63;;;8.97;;
11588;SDS011;5850;51.360;12.362;2024-01-15T02:54:20;12.63;;;8.43;;
11588;SDS011;5850;51.360;12.362;2024-01-15T02:56:48;12.30;;;8.33;;
11588;SDS011;5850;51.360;12.362;2024-01-15T02:59:16;15.90;;;8.73;;
11588;SDS011;5850;51.360;12.362;2024-01-15T03:01:44;14.47;;;8.63;;
11588;SDS011;5850;51.360;12.362;2024-01-15T03:04:13;16.30;;;9.40;;
11588;SDS011;5850;51.360;12.362;2024-01-15T03:06:41;13.23;;;9.13;;
11588;SDS011;5850;51.360;12.362;2024-01-15T03:09:09;12.83;;;8.87;;
11588;SDS011;5850;51.360;12.362;2024-01-15T03:11:38;11.57;;;8.60;;
11588;SDS011;5850;51.360;12.362;2024-01-15T03:14:06;14.80;;;8.87;;
11588;SDS011;5850;51.360;12.362;2024-01-15T03:16:34;14.53;;;9.23;;
11588;SDS011;5850;51.360;12.362;2024-01-15T03:19:02;14.73;;;9.13;;
11588;SDS011;5850;51.360;12.362;2024-01-15T03:21:30;14.50;;;8.93;;
11588;SDS011;5850;51.360;12.362;2024-01-15T03:23:58;15.23;;;9.20;;
11588;SDS011;5850;51.360;12.362;2024-01-15T03:26:26;13.07;;;9.00;;
11588;SDS011;5850;51.360;12.362;2024-01-15T03:28:54;13.47;;;8.87;;
11588;SDS011;5850;51.360;12.362;2024-01-15T03:31:22;13.57;;;9.23;;
11588;SDS011;5850;51.360;12.362;2024-01-15T03:33:51;13.97;;;8.57;;
11588;SDS011;5850;51.360;12.362;2024-01-15T03:36:19;13.97;;;8.90;;
11588;SDS011;5850;51.360;12.362;2024-01-15T03:38:47;13.87;;;8.60;;
11588;SDS011;5850;51.360;12.362;2024-01-15T03:41:15;12.40;;;8.50;;
11588;SDS011;5850;51.360;12.362;2024-01-15T03:43:43;12.17;;;8.17;;
11588;SDS011;5850;51.360;12.362;2024-01-15T03:46:11;13.47;;;8.53;;
11588;SDS011;5850;51.360;12.362;2024-01-15T03:48:40;14.03;;;8.77;;
11588;SDS011;5850;51.360;12.362;2024-01-15T03:51:08;13.90;;;8.57;;
11588;SDS011;5850;51.360;12.362;2024-01-15T03:53:37;13.27;;;8.17;;
11588;SDS011;5850;51.360;12.362;2024-01-15T03:56:05;15.43;;;8.70;;
11588;SDS011;5850;51.360;12.362;2024-01-15T03:58:33;14.03;;;8.87;;
11588;SDS011;5850;51.360;12.362;2024-01-15T04:01:01;11.43;;;8.10;;
11588;SDS011;5850;51.360;12.362;2024-01-15T04:03:30;12.93;;;9.00;;
11588;SDS011;5850;51.360;12.362;2024-01-15T04:06:01;13.93;;;9.23;;
11588;SDS011;5850;51.360;12.362;2024-01-15T04:08:29;14.77;;;8.67;;
11588;SDS011;5850;51.360;12.362;2024-01-15T04:10:57;13.77;;;8.47;;
11588;SDS011;5850;51.360;12.362;2024-01-15T04:13:25;13.07;;;8.73;;
11588;SDS011;5850;51.360;12.362;2024-01-15T04:15:54;9.87;;;7.10;;
11588;SDS011;5850;51.360;12.362;2024-01-15T04:18:22;10.43;;;7.53;;
11588;SDS011;5850;51.360;12.362;2024-01-15T04:20:51;12.73;;;7.93;;
11588;SDS011;5850;51.360;12.362;2024-01-15T04:23:19;12.63;;;7.93;;
11588;SDS011;5850;51.360;12.362;2024-01-15T04:25:47;12.27;;;7.10;;
11588;SDS011;5850;51.360;12.362;2024-01-15T04:28:15;10.50;;;6.77;;
11588;SDS011;5850;51.360;12.362;2024-01-15T04:30:46;12.13;;;7.20;;
11588;SDS011;5850;51.360;12.362;2024-01-15T04:33:15;11.43;;;7.27;;
11588;SDS011;5850;51.360;12.362;2024-01-15T04:35:45;12.97;;;8.03;;
11588;SDS011;5850;51.360;12.362;2024-01-15T04:38:13;10.70;;;7.40;;
11588;SDS011;5850;51.360;12.362;2024-01-15T04:40:41;10.27;;;6.53;;
11588;SDS011;5850;51.360;12.362;2024-01-15T04:43:09;11.37;;;7.67;;
11588;SDS011;5850;51.360;12.362;2024-01-15T04:45:37;10.47;;;7.03;;
11588;SDS011;5850;51.360;12.362;2024-01-15T04:48:05;11.57;;;7.50;;
11588;SDS011;5850;51.360;12.362;2024-01-15T04:50:33;13.23;;;7.80;;
11588;SDS011;5850;51.360;12.362;2024-01-15T04:53:01;13.67;;;7.87;;
11588;SDS011;5850;51.360;12.362;2024-01-15T04:55:29;12.20;;;7.57;;
11588;SDS011;5850;51.360;12.362;2024-01-15T04:57:57;11.87;;;7.80;;
11588;SDS011;5850;51.360;12.362;2024-01-15T05:00:25;12.03;;;7.60;;
11588;SDS011;5850;51.360;12.362;2024-01-15T05:02:54;11.77;;;7.37;;
11588;SDS011;5850;51.360;12.362;2024-01-15T05:05:22;12.30;;;7.97;;
11588;SDS011;5850;51.360;12.362;2024-01-15T05:07:50;12.37;;;7.87;;
11588;SDS011;5850;51.360;12.362;2024-01-15T05:10:18;9.87;;;6.93;;
11588;SDS011;5850;51.360;12.362;2024-01-15T05:12:47;10.83;;;7.37;;
11588;SDS011;5850;51.360;12.362;2024-01-15T05:15:15;9.93;;;6.87;;
11588;SDS011;5850;51.360;12.362;2024-01-15T05:17:43;10.90;;;7.20;;
11588;SDS011;5850;51.360;12.362;2024-01-15T05:20:11;13.23;;;7.57;;
11588;SDS011;5850;51.360;12.362;2024-01-15T05:22:39;10.97;;;6.43;;
11588;SDS011;5850;51.360;12.362;2024-01-15T05:25:08;7.63;;;6.10;;
11588;SDS011;5850;51.360;12.362;2024-01-15T05:27:37;9.50;;;7.03;;
11588;SDS011;5850;51.360;12.362;2024-01-15T05:30:06;8.87;;;6.30;;
11588;SDS011;5850;51.360;12.362;2024-01-15T05:32:34;8.03;;;5.80;;
11588;SDS011;5850;51.360;12.362;2024-01-15T05:35:02;9.07;;;6.10;;
11588;SDS011;5850;51.360;12.362;2024-01-15T05:37:30;11.70;;;7.20;;
11588;SDS011;5850;51.360;12.362;2024-01-15T05:39:58;9.43;;;6.90;;
11588;SDS011;5850;51.360;12.362;2024-01-15T05:42:27;10.77;;;6.23;;
11588;SDS011;5850;51.360;12.362;2024-01-15T05:44:56;13.33;;;6.57;;
11588;SDS011;5850;51.360;12.362;2024-01-15T05:47:28;10.47;;;6.80;;
11588;SDS011;5850;51.360;12.362;2024-01-15T05:49:56;9.37;;;6.47;;
11588;SDS011;5850;51.360;12.362;2024-01-15T05:52:25;9.87;;;6.20;;
11588;SDS011;5850;51.360;12.362;2024-01-15T05:54:53;8.33;;;6.03;;
11588;SDS011;5850;51.360;12.362;2024-01-15T05:57:21;9.03;;;5.70;;
11588;SDS011;5850;51.360;12.362;2024-01-15T05:59:49;10.37;;;6.43;;
11588;SDS011;5850;51.360;12.362;2024-01-15T06:02:18;9.07;;;5.87;;
11588;SDS011;5850;51.360;12.362;2024-01-15T06:04:46;8.27;;;6.03;;
11588;SDS011;5850;51.360;12.362;2024-01-15T06:07:14;7.13;;;5.47;;
11588;SDS011;5850;51.360;12.362;2024-01-15T06:09:42;9.53;;;6.77;;
11588;SDS011;5850;51.360;12.362;2024-01-15T06:12:11;7.47;;;5.93;;
11588;SDS011;5850;51.360;12.362;2024-01-15T06:14:39;9.47;;;6.13;;
11588;SDS011;5850;51.360;12.362;2024-01-15T06:17:08;10.00;;;6.47;;
11588;SDS011;5850;51.360;12.362;2024-01-15T06:19:37;9.97;;;6.47;;
11588;SDS011;5850;51.360;12.362;2024-01-15T06:22:05;9.53;;;6.13;;
11588;SDS011;5850;51.360;12.362;2024-01-15T06:24:33;7.73;;;5.53;;
11588;SDS011;5850;51.360;12.362;2024-01-15T06:27:01;8.17;;;6.03;;
11588;SDS011;5850;51.360;12.362;2024-01-15T06:29:30;9.87;;;6.10;;
11588;SDS011;5850;51.360;12.362;2024-01-15T06:31:58;8.87;;;6.13;;
11588;SDS011;5850;51.360;12.362;2024-01-15T06:34:26;9.60;;;6.23;;
11588;SDS011;5850;51.360;12.362;2024-01-15T06:36:54;9.27;;;5.97;;
11588;SDS011;5850;51.360;12.362;2024-01-15T06:39:22;9.70;;;6.30;;
11588;SDS011;5850;51.360;12.362;2024-01-15T06:41:51;10.40;;;6.87;;
11588;SDS011;5850;51.360;12.362;2024-01-15T06:44:19;10.30;;;6.30;;
11588;SDS011;5850;51.360;12.362;2024-01-15T06:46:48;9.57;;;6.57;;
11588;SDS011;5850;51.360;12.362;2024-01-15T06:49:16;9.43;;;5.77;;
11588;SDS011;5850;51.360;12.362;2024-01-15T06:51:44;9.43;;;5.97;;
11588;SDS011;5850;51.360;12.362;2024-01-15T06:54:15;8.07;;;6.27;;
11588;SDS011;5850;51.360;12.362;2024-01-15T06:56:43;7.73;;;5.77;;
11588;SDS011;5850;51.360;12.362;2024-01-15T06:59:11;11.13;;;6.23;;
11588;SDS011;5850;51.360;12.362;2024-01-15T07:01:43;8.47;;;5.37;;
11588;SDS011;5850;51.360;12.362;2024-01-15T07:04:11;10.57;;;6.47;;
11588;SDS011;5850;51.360;12.362;2024-01-15T07:06:39;9.03;;;6.17;;
11588;SDS011;5850;51.360;12.362;2024-01-15T07:09:08;8.17;;;5.70;;
11588;SDS011;5850;51.360;12.362;2024-01-15T07:11:37;7.03;;;5.20;;
11588;SDS011;5850;51.360;12.362;2024-01-15T07:14:05;7.57;;;5.50;;
11588;SDS011;5850;51.360;12.362;2024-01-15T07:16:33;9.37;;;5.93;;
11588;SDS011;5850;51.360;12.362;2024-01-15T07:19:04;8.17;;;5.83;;
11588;SDS011;5850;51.360;12.362;2024-01-15T07:21:32;9.87;;;6.07;;
11588;SDS011;5850;51.360;12.362;2024-01-15T07:24:00;7.77;;;5.87;;
11588;SDS011;5850;51.360;12.362;2024-01-15T07:26:29;8.20;;;5.20;;
11588;SDS011;5850;51.360;12.362;2024-01-15T07:28:57;8.67;;;5.77;;
11588;SDS011;5850;51.360;12.362;2024-01-15T07:31:26;9.23;;;6.13;;
11588;SDS011;5850;51.360;12.362;2024-01-15T07:33:54;9.63;;;5.77;;
11588;SDS011;5850;51.360;12.362;2024-01-15T07:36:22;8.03;;;5.63;;
11588;SDS011;5850;51.360;12.362;2024-01-15T07:38:50;8.07;;;5.70;;
11588;SDS011;5850;51.360;12.362;2024-01-15T07:41:19;7.60;;;5.67;;
11588;SDS011;5850;51.360;12.362;2024-01-15T07:43:47;10.67;;;5.83;;
11588;SDS011;5850;51.360;12.362;2024-01-15T07:46:15;11.00;;;6.30;;
11588;SDS011;5850;51.360;12.362;2024-01-15T07:48:43;10.07;;;6.20;;
11588;SDS011;5850;51.360;12.362;2024-01-15T07:51:11;7.97;;;5.63;;
11588;SDS011;5850;51.360;12.362;2024-01-15T07:53:39;9.63;;;6.13;;
11588;SDS011;5850;51.360;12.362;2024-01-15T07:56:07;7.50;;;5.67;;
11588;SDS011;5850;51.360;12.362;2024-01-15T07:58:36;7.60;;;5.10;;
11588;SDS011;5850;51.360;12.362;2024-01-15T08:01:04;9.40;;;5.43;;
11588;SDS011;5850;51.360;12.362;2024-01-15T08:03:32;8.47;;;6.27;;
11588;SDS011;5850;51.360;12.362;2024-01-15T08:06:01;12.97;;;5.33;;
11588;SDS011;5850;51.360;12.362;2024-01-15T08:08:28;8.57;;;5.87;;
11588;SDS011;5850;51.360;12.362;2024-01-15T08:10:56;7.33;;;5.30;;
11588;SDS011;5850;51.360;12.362;2024-01-15T08:13:26;9.23;;;6.20;;
11588;SDS011;5850;51.360;12.362;2024-01-15T08:15:54;10.23;;;5.83;;
11588;SDS011;5850;51.360;12.362;2024-01-15T08:18:22;7.20;;;5.53;;
11588;SDS011;5850;51.360;12.362;2024-01-15T08:20:50;8.20;;;5.63;;
11588;SDS011;5850;51.360;12.362;2024-01-15T08:23:18;9.77;;;6.23;;
11588;SDS011;5850;51.360;12.362;2024-01-15T08:25:47;8.10;;;5.60;;
11588;SDS011;5850;51.360;12.362;2024-01-15T08:28:16;9.10;;;5.77;;
11588;SDS011;5850;51.360;12.362;2024-01-15T08:30:45;11.10;;;6.00;;
11588;SDS011;5850;51.360;12.362;2024-01-15T08:33:13;9.03;;;5.97;;
11588;SDS011;5850;51.360;12.362;2024-01-15T08:35:47;8.00;;;5.13;;
11588;SDS011;5850;51.360;12.362;2024-01-15T08:38:15;9.93;;;5.30;;
11588;SDS011;5850;51.360;12.362;2024-01-15T08:40:43;11.17;;;5.73;;
11588;SDS011;5850;51.360;12.362;2024-01-15T08:43:11;8.17;;;5.77;;
11588;SDS011;5850;51.360;12.362;2024-01-15T08:45:39;7.57;;;5.27;;
11588;SDS011;5850;51.360;12.362;2024-01-15T08:48:07;6.43;;;4.90;;
11588;SDS011;5850;51.360;12.362;2024-01-15T08:50:35;10.47;;;5.40;;
11588;SDS011;5850;51.360;12.362;2024-01-15T08:53:03;7.40;;;5.30;;
11588;SDS011;5850;51.360;12.362;2024-01-15T08:55:31;10.43;;;4.97;;
11588;SDS011;5850;51.360;12.362;2024-01-15T08:58:00;11.00;;;5.83;;
11588;SDS011;5850;51.360;12.362;2024-01-15T09:00:28;9.70;;;5.30;;
11588;SDS011;5850;51.360;12.362;2024-01-15T09:02:56;10.57;;;5.73;;
11588;SDS011;5850;51.360;12.362;2024-01-15T09:05:24;9.93;;;5.27;;
11588;SDS011;5850;51.360;12.362;2024-01-15T09:07:52;11.80;;;5.00;;
11588;SDS011;5850;51.360;12.362;2024-01-15T09:10:20;8.00;;;5.57;;
11588;SDS011;5850;51.360;12.362;2024-01-15T09:12:49;9.53;;;5.77;;
11588;SDS011;5850;51.360;12.362;2024-01-15T09:15:18;6.47;;;5.17;;
11588;SDS011;5850;51.360;12.362;2024-01-15T09:17:46;7.67;;;4.97;;
11588;SDS011;5850;51.360;12.362;2024-01-15T09:20:14;10.57;;;5.57;;
11588;SDS011;5850;51.360;12.362;2024-01-15T09:22:43;10.57;;;4.87;;
11588;SDS011;5850;51.360;12.362;2024-01-15T09:25:11;8.20;;;5.00;;
11588;SDS011;5850;51.360;12.362;2024-01-15T09:27:40;8.43;;;4.90;;
11588;SDS011;5850;51.360;12.362;2024-01-15T09:30:08;7.57;;;5.20;;
11588;SDS011;5850;51.360;12.362;2024-01-15T09:32:37;8.50;;;5.37;;
11588;SDS011;5850;51.360;12.362;2024-01-15T09:35:05;6.87;;;4.97;;
11588;SDS011;5850;51.360;12.362;2024-01-15T09:37:34;7.47;;;4.93;;
11588;SDS011;5850;51.360;12.362;2024-01-15T09:40:13;6.37;;;4.47;;
11588;SDS011;5850;51.360;12.362;2024-01-15T09:42:43;9.20;;;5.07;;
11588;SDS011;5850;51.360;12.362;2024-01-15T09:45:11;7.83;;;4.80;;
11588;SDS011;5850;51.360;12.362;2024-01-15T09:47:40;8.30;;;4.97;;
11588;SDS011;5850;51.360;12.362;2024-01-15T09:50:11;10.10;;;5.47;;
11588;SDS011;5850;51.360;12.362;2024-01-15T09:52:41;8.73;;;5.30;;
11588;SDS011;5850;51.360;12.362;2024-01-15T09:55:10;8.73;;;4.73;;
11588;SDS011;5850;51.360;12.362;2024-01-15T09:57:39;6.33;;;4.33;;
11588;SDS011;5850;51.360;12.362;2024-01-15T10:00:07;9.17;;;5.33;;
11588;SDS011;5850;51.360;12.362;2024-01-15T10:02:37;8.73;;;5.33;;
11588;SDS011;5850;51.360;12.362;2024-01-15T10:05:06;9.30;;;5.80;;
11588;SDS011;5850;51.360;12.362;2024-01-15T10:07:35;7.13;;;4.83;;
11588;SDS011;5850;51.360;12.362;2024-01-15T10:10:04;9.23;;;5.10;;
11588;SDS011;5850;51.360;12.362;2024-01-15T10:12:33;14.03;;;5.10;;
11588;SDS011;5850;51.360;12.362;2024-01-15T10:15:01;11.10;;;7.17;;
11588;SDS011;5850;51.360;12.362;2024-01-15T10:17:30;9.30;;;4.70;;
11588;SDS011;5850;51.360;12.362;2024-01-15T10:19:58;8.53;;;5.80;;
11588;SDS011;5850;51.360;12.362;2024-01-15T10:22:27;8.13;;;5.13;;
11588;SDS011;5850;51.360;12.362;2024-01-15T10:24:55;9.97;;;5.67;;
11588;SDS011;5850;51.360;12.362;2024-01-15T10:27:25;8.33;;;5.40;;
11588;SDS011;5850;51.360;12.362;2024-01-15T10:29:54;7.50;;;5.40;;
11588;SDS011;5850;51.360;12.362;2024-01-15T10:32:22;8.57;;;5.07;;
11588;SDS011;5850;51.360;12.362;2024-01-15T10:34:51;10.03;;;5.40;;
11588;SDS011;5850;51.360;12.362;2024-01-15T10:37:20;7.70;;;5.17;;
11588;SDS011;5850;51.360;12.362;2024-01-15T10:39:51;6.77;;;4.70;;
11588;SDS011;5850;51.360;12.362;2024-01-15T10:42:20;7.60;;;4.70;;
11588;SDS011;5850;51.360;12.362;2024-01-15T10:44:48;8.73;;;5.37;;
11588;SDS011;5850;51.360;12.362;2024-01-15T10:47:16;8.60;;;5.93;;
11588;SDS011;5850;51.360;12.362;2024-01-15T10:49:44;8.23;;;5.47;;
11588;SDS011;5850;51.360;12.362;2024-01-15T10:52:13;14.53;;;5.80;;
11588;SDS011;5850;51.360;12.362;2024-01-15T10:54:41;8.90;;;5.50;;
11588;SDS011;5850;51.360;12.362;2024-01-15T10:57:10;9.53;;;5.90;;
11588;SDS011;5850;51.360;12.362;2024-01-15T10:59:39;7.67;;;5.30;;
11588;SDS011;5850;51.360;12.362;2024-01-15T11:02:07;8.53;;;5.63;;
11588;SDS011;5850;51.360;12.362;2024-01-15T11:04:36;9.77;;;6.00;;
11588;SDS011;5850;51.360;12.362;2024-01-15T11:07:05;9.90;;;6.57;;
11588;SDS011;5850;51.360;12.362;2024-01-15T11:09:33;8.97;;;6.00;;
11588;SDS011;5850;51.360;12.362;2024-01-15T11:12:10;6.77;;;5.33;;
11588;SDS011;5850;51.360;12.362;2024-01-15T11:14:40;10.90;;;6.50;;
11588;SDS011;5850;51.360;12.362;2024-01-15T11:17:10;10.37;;;6.13;;
11588;SDS011;5850;51.360;12.362;2024-01-15T11:19:43;9.53;;;6.10;;
11588;SDS011;5850;51.360;12.362;2024-01-15T11:24:57;10.63;;;7.00;;
11588;SDS011;5850;51.360;12.362;2024-01-15T11:27:41;10.17;;;6.73;;
11588;SDS011;5850;51.360;12.362;2024-01-15T11:30:11;7.97;;;5.10;;
11588;SDS011;5850;51.360;12.362;2024-01-15T11:32:40;10.60;;;6.53;;
11588;SDS011;5850;51.360;12.362;2024-01-15T11:35:10;10.20;;;6.67;;
11588;SDS011;5850;51.360;12.362;2024-01-15T11:40:44;9.00;;;6.37;;
11588;SDS011;5850;51.360;12.362;2024-01-15T11:43:13;10.67;;;6.40;;
11588;SDS011;5850;51.360;12.362;2024-01-15T11:45:46;12.13;;;6.50;;
11588;SDS011;5850;51.360;12.362;2024-01-15T11:48:19;10.23;;;6.70;;
11588;SDS011;5850;51.360;12.362;2024-01-15T11:50:50;11.20;;;7.30;;
11588;SDS011;5850;51.360;12.362;2024-01-15T11:56:22;7.13;;;5.80;;
11588;SDS011;5850;51.360;12.362;2024-01-15T11:58:50;7.20;;;5.73;;
11588;SDS011;5850;51.360;12.362;2024-01-15T12:01:22;10.07;;;6.50;;
11588;SDS011;5850;51.360;12.362;2024-01-15T12:03:50;10.30;;;6.80;;
11588;SDS011;5850;51.360;12.362;2024-01-15T12:06:18;9.90;;;6.50;;
11588;SDS011;5850;51.360;12.362;2024-01-15T12:08:48;10.80;;;6.10;;
11588;SDS011;5850;51.360;12.362;2024-01-15T12:11:16;9.80;;;5.50;;
11588;SDS011;5850;51.360;12.362;2024-01-15T12:13:47;7.50;;;5.53;;
11588;SDS011;5850;51.360;12.362;2024-01-15T12:16:16;9.47;;;5.87;;
11588;SDS011;5850;51.360;12.362;2024-01-15T12:18:44;10.53;;;6.20;;
11588;SDS011;5850;51.360;12.362;2024-01-15T12:21:12;6.53;;;5.00;;
11588;SDS011;5850;51.360;12.362;2024-01-15T12:23:40;7.23;;;5.77;;
11588;SDS011;5850;51.360;12.362;2024-01-15T12:26:08;7.43;;;5.60;;
11588;SDS011;5850;51.360;12.362;2024-01-15T12:28:36;10.27;;;6.27;;
11588;SDS011;5850;51.360;12.362;2024-01-15T12:31:05;8.90;;;5.40;;
11588;SDS011;5850;51.360;12.362;2024-01-15T12:33:33;8.63;;;5.73;;
11588;SDS011;5850;51.360;12.362;2024-01-15T12:36:02;10.47;;;5.77;;
11588;SDS011;5850;51.360;12.362;2024-01-15T12:38:31;11.10;;;6.33;;
11588;SDS011;5850;51.360;12.362;2024-01-15T12:41:00;8.57;;;5.57;;
11588;SDS011;5850;51.360;12.362;2024-01-15T12:43:28;9.23;;;5.13;;
11588;SDS011;5850;51.360;12.362;2024-01-15T12:45:56;8.80;;;5.40;;
11588;SDS011;5850;51.360;12.362;2024-01-15T12:48:24;8.33;;;5.27;;
11588;SDS011;5850;51.360;12.362;2024-01-15T12:50:53;9.37;;;5.07;;
11588;SDS011;5850;51.360;12.362;2024-01-15T12:53:21;9.10;;;5.63;;
11588;SDS011;5850;51.360;12.362;2024-01-15T12:55:49;8.00;;;5.17;;
11588;SDS011;5850;51.360;12.362;2024-01-15T12:58:18;7.27;;;5.60;;
11588;SDS011;5850;51.360;12.362;2024-01-15T13:00:46;9.47;;;5.70;;
11588;SDS011;5850;51.360;12.362;2024-01-15T13:03:14;6.80;;;4.77;;
11588;SDS011;5850;51.360;12.362;2024-01-15T13:05:43;9.90;;;5.90;;
11588;SDS011;5850;51.360;12.362;2024-01-15T13:08:12;10.93;;;5.53;;
11588;SDS011;5850;51.360;12.362;2024-01-15T13:10:40;7.07;;;5.30;;
11588;SDS011;5850;51.360;12.362;2024-01-15T13:13:09;10.60;;;5.83;;
11588;SDS011;5850;51.360;12.362;2024-01-15T13:15:37;8.13;;;5.63;;
11588;SDS011;5850;51.360;12.362;2024-01-15T13:18:05;9.27;;;6.13;;
11588;SDS011;5850;51.360;12.362;2024-01-15T13:20:34;7.63;;;5.60;;
11588;SDS011;5850;51.360;12.362;2024-01-15T13:23:02;8.67;;;5.87;;
11588;SDS011;5850;51.360;12.362;2024-01-15T13:25:30;8.47;;;5.77;;
11588;SDS011;5850;51.360;12.362;2024-01-15T13:27:59;8.00;;;5.37;;
11588;SDS011;5850;51.360;12.362;2024-01-15T13:30:28;7.13;;;4.93;;
11588;SDS011;5850;51.360;12.362;2024-01-15T13:32:57;5.90;;;4.50;;
11588;SDS011;5850;51.360;12.362;2024-01-15T13:35:30;6.33;;;4.67;;
11588;SDS011;5850;51.360;12.362;2024-01-15T13:37:58;6.43;;;4.43;;
11588;SDS011;5850;51.360;12.362;2024-01-15T13:40:26;5.07;;;3.97;;
11588;SDS011;5850;51.360;12.362;2024-01-15T13:42:55;7.23;;;4.30;;
11588;SDS011;5850;51.360;12.362;2024-01-15T13:45:23;8.20;;;4.90;;
11588;SDS011;5850;51.360;12.362;2024-01-15T13:47:51;4.80;;;3.70;;
11588;SDS011;5850;51.360;12.362;2024-01-15T13:50:19;6.47;;;4.40;;
11588;SDS011;5850;51.360;12.362;2024-01-15T13:52:51;6.03;;;4.50;;
11588;SDS011;5850;51.360;12.362;2024-01-15T13:55:19;6.10;;;4.60;;
11588;SDS011;5850;51.360;12.362;2024-01-15T13:57:47;7.40;;;5.17;;
11588;SDS011;5850;51.360;12.362;2024-01-15T14:00:15;8.40;;;5.43;;
11588;SDS011;5850;51.360;12.362;2024-01-15T14:02:46;5.77;;;4.53;;
11588;SDS011;5850;51.360;12.362;2024-01-15T14:05:15;6.80;;;4.50;;
11588;SDS011;5850;51.360;12.362;2024-01-15T14:07:43;9.23;;;4.67;;
11588;SDS011;5850;51.360;12.362;2024-01-15T14:10:12;7.93;;;4.57;;
11588;SDS011;5850;51.360;12.362;2024-01-15T14:12:40;7.17;;;4.33;;
11588;SDS011;5850;51.360;12.362;2024-01-15T14:15:08;7.33;;;4.57;;
11588;SDS011;5850;51.360;12.362;2024-01-15T14:17:37;8.23;;;4.60;;
11588;SDS011;5850;51.360;12.362;2024-01-15T14:20:05;6.17;;;3.97;;
11588;SDS011;5850;51.360;12.362;2024-01-15T14:22:36;5.53;;;4.20;;
11588;SDS011;5850;51.360;12.362;2024-01-15T14:25:04;5.87;;;4.17;;
11588;SDS011;5850;51.360;12.362;2024-01-15T14:27:32;6.53;;;4.37;;
11588;SDS011;5850;51.360;12.362;2024-01-15T14:30:01;7.53;;;4.63;;
11588;SDS011;5850;51.360;12.362;2024-01-15T14:32:29;7.97;;;5.23;;
11588;SDS011;5850;51.360;12.362;2024-01-15T14:34:57;7.77;;;4.63;;
11588;SDS011;5850;51.360;12.362;2024-01-15T14:37:26;6.63;;;4.70;;
11588;SDS011;5850;51.360;12.362;2024-01-15T14:39:54;7.40;;;4.37;;
11588;SDS011;5850;51.360;12.362;2024-01-15T14:42:22;6.10;;;4.53;;
11588;SDS011;5850;51.360;12.362;2024-01-15T14:44:52;7.00;;;4.77;;
11588;SDS011;5850;51.360;12.362;2024-01-15T14:47:20;6.03;;;4.80;;
11588;SDS011;5850;51.360;12.362;2024-01-15T14:49:50;6.77;;;4.70;;
11588;SDS011;5850;51.360;12.362;2024-01-15T14:52:18;7.10;;;4.40;;
11588;SDS011;5850;51.360;12.362;2024-01-15T14:54:47;7.63;;;4.67;;
11588;SDS011;5850;51.360;12.362;2024-01-15T14:57:15;6.63;;;4.63;;